首页
METAR-TAF:

METAR-TAF

机场 :

Cherokee County Airport

傑克遜維爾, 得克萨斯州, 美国

纬度: 31-52-09N, 经度: 095-13-02W, 海拔: 206米

当前天气观测

该预报发布于30分钟前的11:35 UTC
静风
温度 23°C
湿度 100%
气压 1020 hPa
能見度: 11.3公里

METAR: KJSO 251135Z AUTO 00000KT 7SM 23/23 A3013 RMK AO2 T02280227

时间: 07:05 (12:05 UTC)


TAF: 丢失

超过4000个机场的气象观测和天气预报(METAR&TAF报告)。

可查询的气象台以黄色和红色小点在地图上表示。

将鼠标移到小点上方,可查看气象台名称。

然后点击查看天气观测和预报。

如需切换地图:点击带黑十字的绿色按钮放大地图;点击带横线的绿色按钮缩小地图;或者点击绿色箭头查看邻近地区的地图。


METAR-TAF: